PIA753 OPIS-OERK
Flight info
| Callsign | PIA753 |
|---|---|
| Flight time | 4h 6m |
| Altitude | 40000 |
| Route | KALMI J139 HANGU G325 PG T385 TAPDO G652 TULBU M628 PEKEM DCT DEGNO/N0465F280 T533 RESAL |
| Aircraft | B772/H-SDE2E3FGHIJ5LORVWXY/LB1D1 |
Departure
| Time | 2026-04-21 10:49 |
|---|---|
| Airport | Islamabad International Airport (OPIS) |
Arrival
| Time | 2026-04-21 14:56 |
|---|---|
| Airport | King Khalid International Airport (OERK) |
| Time | Latitude | Longitude | Altitude | Speed | Heading |
|---|---|---|---|---|---|
| 2026-04-21 10:10 | 33.55438 | 72.83356 | 1774 ft | 0 kts | 10° |
| 2026-04-21 10:11 | 33.55435 | 72.83355 | 1774 ft | 0 kts | 10° |
| 2026-04-21 10:11 | 33.55444 | 72.83357 | 1776 ft | 0 kts | 10° |
| 2026-04-21 10:12 | 33.55435 | 72.83355 | 1774 ft | 0 kts | 10° |
| 2026-04-21 10:13 | 33.55448 | 72.83258 | 1774 ft | 0 kts | 355° |
| 2026-04-21 10:37 | 33.55446 | 72.83258 | 1774 ft | 2 kts | 355° |
| 2026-04-21 10:37 | 33.55420 | 72.83261 | 1774 ft | 4 kts | 355° |
| 2026-04-21 10:37 | 33.55394 | 72.83263 | 1773 ft | 4 kts | 345° |
| 2026-04-21 10:38 | 33.55370 | 72.83277 | 1774 ft | 4 kts | 317° |
| 2026-04-21 10:38 | 33.55353 | 72.83301 | 1773 ft | 4 kts | 300° |
| 2026-04-21 10:38 | 33.55349 | 72.83311 | 1774 ft | 1 kts | 299° |
| 2026-04-21 10:43 | 33.55346 | 72.83267 | 1777 ft | 7 kts | 231° |
| 2026-04-21 10:44 | 33.55317 | 72.83223 | 1775 ft | 7 kts | 233° |
| 2026-04-21 10:44 | 33.55288 | 72.83172 | 1777 ft | 8 kts | 235° |
| 2026-04-21 10:44 | 33.55256 | 72.83117 | 1778 ft | 8 kts | 235° |
| 2026-04-21 10:44 | 33.55225 | 72.83060 | 1777 ft | 8 kts | 237° |
| 2026-04-21 10:45 | 33.55194 | 72.83006 | 1776 ft | 8 kts | 226° |
| 2026-04-21 10:45 | 33.55140 | 72.83010 | 1776 ft | 8 kts | 148° |
| 2026-04-21 10:45 | 33.55115 | 72.83102 | 1772 ft | 18 kts | 101° |
| 2026-04-21 10:45 | 33.55090 | 72.83271 | 1775 ft | 21 kts | 100° |
| 2026-04-21 10:46 | 33.55063 | 72.83445 | 1775 ft | 21 kts | 101° |
| 2026-04-21 10:46 | 33.55035 | 72.83618 | 1776 ft | 21 kts | 100° |
| 2026-04-21 10:46 | 33.55009 | 72.83793 | 1776 ft | 21 kts | 101° |
| 2026-04-21 10:46 | 33.54982 | 72.83966 | 1776 ft | 21 kts | 101° |
| 2026-04-21 10:47 | 33.54956 | 72.84140 | 1776 ft | 21 kts | 100° |
| 2026-04-21 10:47 | 33.54929 | 72.84313 | 1775 ft | 21 kts | 101° |
| 2026-04-21 10:47 | 33.54904 | 72.84478 | 1774 ft | 14 kts | 100° |
| 2026-04-21 10:47 | 33.54856 | 72.84554 | 1776 ft | 12 kts | 173° |
| 2026-04-21 10:48 | 33.54768 | 72.84528 | 1772 ft | 14 kts | 194° |
| 2026-04-21 10:48 | 33.54664 | 72.84504 | 1770 ft | 15 kts | 191° |
| 2026-04-21 10:48 | 33.54571 | 72.84482 | 1770 ft | 12 kts | 191° |
| 2026-04-21 10:48 | 33.54509 | 72.84450 | 1768 ft | 9 kts | 244° |
| 2026-04-21 10:49 | 33.54533 | 72.84315 | 1768 ft | 34 kts | 281° |
| 2026-04-21 10:49 | 33.54624 | 72.83745 | 1771 ft | 106 kts | 280° |
| 2026-04-21 10:49 | 33.54798 | 72.82616 | 1780 ft | 165 kts | 281° |
| 2026-04-21 10:49 | 33.55031 | 72.81240 | 2441 ft | 165 kts | 282° |
| 2026-04-21 10:50 | 33.55178 | 72.80343 | 3012 ft | 166 kts | 283° |
| 2026-04-21 10:50 | 33.55464 | 72.78473 | 3919 ft | 183 kts | 282° |
| 2026-04-21 10:50 | 33.55714 | 72.76874 | 4194 ft | 211 kts | 281° |
| 2026-04-21 10:50 | 33.55995 | 72.75040 | 4505 ft | 235 kts | 281° |
| 2026-04-21 10:51 | 33.56062 | 72.73003 | 4717 ft | 256 kts | 257° |
| 2026-04-21 10:51 | 33.55191 | 72.71090 | 5245 ft | 269 kts | 229° |
| 2026-04-21 10:51 | 33.53984 | 72.69356 | 5687 ft | 274 kts | 246° |
| 2026-04-21 10:51 | 33.53685 | 72.67166 | 6437 ft | 266 kts | 276° |
| 2026-04-21 10:52 | 33.53954 | 72.64944 | 6931 ft | 274 kts | 278° |
| 2026-04-21 10:52 | 33.54174 | 72.62667 | 7659 ft | 275 kts | 276° |
| 2026-04-21 10:52 | 33.54322 | 72.60378 | 8410 ft | 276 kts | 275° |
| 2026-04-21 10:52 | 33.54426 | 72.58068 | 9074 ft | 280 kts | 274° |
| 2026-04-21 10:53 | 33.54500 | 72.55715 | 9723 ft | 284 kts | 273° |
| 2026-04-21 10:53 | 33.54539 | 72.54140 | 10119 ft | 286 kts | 272° |
| 2026-04-21 10:53 | 33.54588 | 72.51684 | 10386 ft | 305 kts | 272° |
| 2026-04-21 10:53 | 33.54641 | 72.48145 | 10601 ft | 335 kts | 271° |
| 2026-04-21 10:54 | 33.54679 | 72.45242 | 10778 ft | 360 kts | 271° |
| 2026-04-21 10:54 | 33.54719 | 72.42185 | 11317 ft | 373 kts | 271° |
| 2026-04-21 10:54 | 33.54740 | 72.40068 | 11814 ft | 378 kts | 271° |
| 2026-04-21 10:54 | 33.54753 | 72.36924 | 12674 ft | 382 kts | 271° |
| 2026-04-21 10:55 | 33.54759 | 72.33722 | 13547 ft | 387 kts | 270° |
| 2026-04-21 10:55 | 33.54763 | 72.30478 | 14272 ft | 392 kts | 270° |
| 2026-04-21 10:55 | 33.54768 | 72.27198 | 15017 ft | 396 kts | 271° |
| 2026-04-21 10:55 | 33.54773 | 72.23881 | 15739 ft | 400 kts | 271° |
| 2026-04-21 10:56 | 33.54779 | 72.20518 | 16417 ft | 405 kts | 271° |
| 2026-04-21 10:56 | 33.54786 | 72.17120 | 17073 ft | 410 kts | 271° |
| 2026-04-21 10:56 | 33.54790 | 72.13677 | 17711 ft | 416 kts | 271° |
| 2026-04-21 10:56 | 33.54795 | 72.10191 | 18301 ft | 420 kts | 271° |
| 2026-04-21 10:57 | 33.54798 | 72.06678 | 18899 ft | 423 kts | 271° |
| 2026-04-21 10:57 | 33.54800 | 72.03141 | 19550 ft | 424 kts | 271° |
| 2026-04-21 10:57 | 33.54718 | 71.99652 | 20213 ft | 425 kts | 268° |
| 2026-04-21 10:57 | 33.54492 | 71.96109 | 20849 ft | 426 kts | 266° |
| 2026-04-21 10:58 | 33.54233 | 71.92549 | 21449 ft | 428 kts | 266° |
| 2026-04-21 10:58 | 33.53999 | 71.88975 | 22024 ft | 431 kts | 267° |
| 2026-04-21 10:58 | 33.53782 | 71.85384 | 22593 ft | 433 kts | 267° |
| 2026-04-21 10:58 | 33.53572 | 71.81777 | 23153 ft | 435 kts | 267° |
| 2026-04-21 10:59 | 33.53364 | 71.78145 | 23655 ft | 438 kts | 267° |
| 2026-04-21 10:59 | 33.53157 | 71.74543 | 24121 ft | 440 kts | 267° |
| 2026-04-21 10:59 | 33.52944 | 71.70872 | 24598 ft | 442 kts | 267° |
| 2026-04-21 10:59 | 33.52728 | 71.67185 | 25053 ft | 444 kts | 267° |
| 2026-04-21 11:00 | 33.52510 | 71.63478 | 25502 ft | 447 kts | 267° |
| 2026-04-21 11:00 | 33.52289 | 71.59748 | 25949 ft | 449 kts | 267° |
| 2026-04-21 11:00 | 33.52065 | 71.55996 | 26404 ft | 452 kts | 267° |
| 2026-04-21 11:00 | 33.51840 | 71.52228 | 26817 ft | 455 kts | 267° |
| 2026-04-21 11:01 | 33.51611 | 71.48430 | 27224 ft | 458 kts | 267° |
| 2026-04-21 11:01 | 33.51379 | 71.44609 | 27632 ft | 460 kts | 267° |
| 2026-04-21 11:01 | 33.51143 | 71.40771 | 28030 ft | 463 kts | 267° |
| 2026-04-21 11:02 | 33.50666 | 71.33084 | 28789 ft | 468 kts | 267° |
| 2026-04-21 11:02 | 33.50422 | 71.29189 | 29135 ft | 470 kts | 267° |
| 2026-04-21 11:02 | 33.50176 | 71.25269 | 29476 ft | 473 kts | 267° |
| 2026-04-21 11:02 | 33.49927 | 71.21323 | 29781 ft | 475 kts | 267° |
| 2026-04-21 11:03 | 33.49676 | 71.17365 | 30076 ft | 477 kts | 267° |
| 2026-04-21 11:03 | 33.49425 | 71.13408 | 30529 ft | 474 kts | 267° |
| 2026-04-21 11:03 | 33.49173 | 71.09494 | 31068 ft | 469 kts | 267° |
| 2026-04-21 11:03 | 33.48775 | 71.05655 | 31496 ft | 465 kts | 258° |
| 2026-04-21 11:04 | 33.47549 | 71.02059 | 31841 ft | 471 kts | 242° |
| 2026-04-21 11:04 | 33.45608 | 70.98879 | 32292 ft | 475 kts | 231° |
| 2026-04-21 11:04 | 33.43174 | 70.96270 | 32707 ft | 477 kts | 218° |
| 2026-04-21 11:04 | 33.40350 | 70.94153 | 32978 ft | 480 kts | 216° |
| 2026-04-21 11:05 | 33.37479 | 70.92094 | 33299 ft | 481 kts | 215° |
| 2026-04-21 11:05 | 33.34606 | 70.90038 | 33745 ft | 479 kts | 216° |
| 2026-04-21 11:05 | 33.31772 | 70.87986 | 34129 ft | 476 kts | 216° |
| 2026-04-21 11:05 | 33.28961 | 70.85925 | 34588 ft | 471 kts | 216° |
| 2026-04-21 11:06 | 33.26186 | 70.83873 | 34998 ft | 469 kts | 217° |
| 2026-04-21 11:06 | 33.23415 | 70.81813 | 35303 ft | 469 kts | 217° |
| 2026-04-21 11:06 | 33.20646 | 70.79748 | 35609 ft | 468 kts | 217° |
| 2026-04-21 11:06 | 33.17916 | 70.77711 | 35997 ft | 466 kts | 217° |
| 2026-04-21 11:07 | 33.15172 | 70.75667 | 36352 ft | 464 kts | 217° |
| 2026-04-21 11:07 | 33.12432 | 70.73628 | 36644 ft | 464 kts | 217° |
| 2026-04-21 11:07 | 33.09688 | 70.71589 | 36940 ft | 463 kts | 217° |
| 2026-04-21 11:07 | 33.06953 | 70.69562 | 37267 ft | 462 kts | 217° |
| 2026-04-21 11:08 | 33.04226 | 70.67541 | 37572 ft | 461 kts | 217° |
| 2026-04-21 11:08 | 33.01497 | 70.65519 | 37878 ft | 460 kts | 217° |
| 2026-04-21 11:08 | 32.98779 | 70.63507 | 38187 ft | 459 kts | 217° |
| 2026-04-21 11:08 | 32.96063 | 70.61497 | 38467 ft | 459 kts | 217° |
| 2026-04-21 11:09 | 32.93384 | 70.59516 | 38681 ft | 459 kts | 218° |
| 2026-04-21 11:09 | 32.90685 | 70.57490 | 38851 ft | 459 kts | 218° |
| 2026-04-21 11:09 | 32.88000 | 70.55440 | 39036 ft | 459 kts | 218° |
| 2026-04-21 11:09 | 32.85317 | 70.53382 | 39175 ft | 459 kts | 218° |
| 2026-04-21 11:10 | 32.79903 | 70.49235 | 39367 ft | 464 kts | 218° |
| 2026-04-21 11:10 | 32.77182 | 70.47163 | 39575 ft | 464 kts | 217° |
| 2026-04-21 11:10 | 32.74456 | 70.45090 | 39677 ft | 465 kts | 217° |
| 2026-04-21 11:11 | 32.69014 | 70.40956 | 39761 ft | 469 kts | 217° |
| 2026-04-21 11:11 | 32.63533 | 70.36801 | 39739 ft | 465 kts | 217° |
| 2026-04-21 11:12 | 32.57991 | 70.32855 | 39773 ft | 463 kts | 215° |
| 2026-04-21 11:12 | 32.52409 | 70.29022 | 39780 ft | 462 kts | 215° |
| 2026-04-21 11:13 | 32.46851 | 70.25166 | 39770 ft | 463 kts | 215° |
| 2026-04-21 11:13 | 32.41300 | 70.21294 | 39777 ft | 463 kts | 215° |
| 2026-04-21 11:14 | 32.35733 | 70.17413 | 39785 ft | 464 kts | 216° |
| 2026-04-21 11:14 | 32.30249 | 70.13477 | 39780 ft | 464 kts | 216° |
| 2026-04-21 11:15 | 32.24750 | 70.09491 | 39765 ft | 463 kts | 216° |
| 2026-04-21 11:15 | 32.19245 | 70.05511 | 39781 ft | 463 kts | 216° |
| 2026-04-21 11:16 | 32.13733 | 70.01547 | 39786 ft | 464 kts | 216° |
| 2026-04-21 11:16 | 32.08217 | 69.97589 | 39783 ft | 464 kts | 216° |
| 2026-04-21 11:17 | 32.02690 | 69.93631 | 39765 ft | 464 kts | 216° |
| 2026-04-21 11:17 | 31.97181 | 69.89692 | 39784 ft | 465 kts | 216° |
| 2026-04-21 11:18 | 31.91646 | 69.85736 | 39781 ft | 465 kts | 216° |
| 2026-04-21 11:18 | 31.86102 | 69.81779 | 39793 ft | 466 kts | 216° |
| 2026-04-21 11:19 | 31.80581 | 69.77846 | 39800 ft | 467 kts | 216° |
| 2026-04-21 11:19 | 31.75023 | 69.73892 | 39786 ft | 467 kts | 216° |
| 2026-04-21 11:20 | 31.69469 | 69.69947 | 39816 ft | 466 kts | 216° |
| 2026-04-21 11:20 | 31.63914 | 69.66006 | 39799 ft | 467 kts | 216° |
| 2026-04-21 11:21 | 31.58358 | 69.62070 | 39814 ft | 466 kts | 216° |
| 2026-04-21 11:21 | 31.52796 | 69.58136 | 39815 ft | 466 kts | 216° |
| 2026-04-21 11:22 | 31.47270 | 69.54230 | 39813 ft | 466 kts | 216° |
| 2026-04-21 11:22 | 31.41727 | 69.50317 | 39808 ft | 465 kts | 216° |
| 2026-04-21 11:23 | 31.36333 | 69.46201 | 39823 ft | 459 kts | 223° |
| 2026-04-21 11:23 | 31.31693 | 69.41149 | 39832 ft | 453 kts | 232° |
| 2026-04-21 11:24 | 31.27459 | 69.35689 | 39814 ft | 453 kts | 232° |
| 2026-04-21 11:24 | 31.23212 | 69.30228 | 39815 ft | 454 kts | 232° |
| 2026-04-21 11:25 | 31.18941 | 69.24777 | 39820 ft | 455 kts | 231° |
| 2026-04-21 11:25 | 31.14684 | 69.19368 | 39807 ft | 455 kts | 231° |
| 2026-04-21 11:26 | 31.10398 | 69.13934 | 39827 ft | 455 kts | 231° |
| 2026-04-21 11:26 | 31.06112 | 69.08502 | 39840 ft | 455 kts | 231° |
| 2026-04-21 11:27 | 31.01808 | 69.03059 | 39828 ft | 455 kts | 231° |
| 2026-04-21 11:27 | 30.97512 | 68.97635 | 39834 ft | 456 kts | 231° |
| 2026-04-21 11:28 | 30.93209 | 68.92205 | 39837 ft | 456 kts | 231° |
| 2026-04-21 11:28 | 30.88931 | 68.86818 | 39837 ft | 456 kts | 231° |
| 2026-04-21 11:29 | 30.84615 | 68.81390 | 39836 ft | 456 kts | 231° |
| 2026-04-21 11:29 | 30.80302 | 68.75974 | 39821 ft | 456 kts | 231° |
| 2026-04-21 11:30 | 30.75981 | 68.70555 | 39836 ft | 456 kts | 231° |
| 2026-04-21 11:30 | 30.71662 | 68.65146 | 39835 ft | 457 kts | 231° |
| 2026-04-21 11:31 | 30.67339 | 68.59738 | 39836 ft | 457 kts | 231° |
| 2026-04-21 11:31 | 30.63034 | 68.54363 | 39840 ft | 457 kts | 231° |
| 2026-04-21 11:32 | 30.58700 | 68.48957 | 39835 ft | 457 kts | 231° |
| 2026-04-21 11:32 | 30.54364 | 68.43558 | 39855 ft | 457 kts | 230° |
| 2026-04-21 11:33 | 30.50026 | 68.38163 | 39862 ft | 457 kts | 230° |
| 2026-04-21 11:33 | 30.45681 | 68.32768 | 39868 ft | 457 kts | 230° |
| 2026-04-21 11:34 | 30.41365 | 68.27415 | 39871 ft | 457 kts | 230° |
| 2026-04-21 11:34 | 30.37025 | 68.22039 | 39867 ft | 457 kts | 230° |
| 2026-04-21 11:35 | 30.32675 | 68.16658 | 39885 ft | 457 kts | 230° |
| 2026-04-21 11:35 | 30.28320 | 68.11278 | 39859 ft | 457 kts | 230° |
| 2026-04-21 11:36 | 30.23954 | 68.05916 | 39858 ft | 458 kts | 230° |
| 2026-04-21 11:36 | 30.19559 | 68.00567 | 39850 ft | 458 kts | 230° |
| 2026-04-21 11:37 | 30.15199 | 67.95263 | 39862 ft | 458 kts | 230° |
| 2026-04-21 11:37 | 30.10807 | 67.89919 | 39815 ft | 458 kts | 230° |
| 2026-04-21 11:38 | 30.06426 | 67.84568 | 39820 ft | 459 kts | 230° |
| 2026-04-21 11:38 | 30.02078 | 67.79171 | 39808 ft | 459 kts | 231° |
| 2026-04-21 11:39 | 29.97728 | 67.73771 | 39763 ft | 459 kts | 230° |
| 2026-04-21 11:39 | 29.93370 | 67.68379 | 39771 ft | 459 kts | 230° |
| 2026-04-21 11:40 | 29.89008 | 67.62996 | 39772 ft | 459 kts | 230° |
| 2026-04-21 11:40 | 29.84669 | 67.57648 | 39740 ft | 459 kts | 230° |
| 2026-04-21 11:41 | 29.80305 | 67.52275 | 39747 ft | 459 kts | 230° |
| 2026-04-21 11:41 | 29.75941 | 67.46908 | 39764 ft | 459 kts | 230° |
| 2026-04-21 11:42 | 29.72303 | 67.42440 | 39744 ft | 459 kts | 230° |
| 2026-04-21 11:42 | 29.67928 | 67.37055 | 39779 ft | 460 kts | 230° |
| 2026-04-21 11:43 | 29.63562 | 67.31683 | 39775 ft | 460 kts | 230° |
| 2026-04-21 11:43 | 29.59186 | 67.26306 | 39800 ft | 460 kts | 230° |
| 2026-04-21 11:44 | 29.54808 | 67.20935 | 39790 ft | 460 kts | 230° |
| 2026-04-21 11:44 | 29.50459 | 67.15608 | 39817 ft | 459 kts | 230° |
| 2026-04-21 11:45 | 29.46082 | 67.10252 | 39835 ft | 461 kts | 230° |
| 2026-04-21 11:45 | 29.41683 | 67.04878 | 39842 ft | 461 kts | 230° |
| 2026-04-21 11:46 | 29.37273 | 66.99496 | 39868 ft | 462 kts | 230° |
| 2026-04-21 11:46 | 29.32892 | 66.94157 | 39871 ft | 462 kts | 230° |
| 2026-04-21 11:47 | 29.28481 | 66.88790 | 39884 ft | 462 kts | 229° |
| 2026-04-21 11:47 | 29.24066 | 66.83425 | 39886 ft | 462 kts | 229° |
| 2026-04-21 11:48 | 29.19650 | 66.78065 | 39883 ft | 463 kts | 229° |
| 2026-04-21 11:48 | 29.15222 | 66.72698 | 39894 ft | 463 kts | 229° |
| 2026-04-21 11:49 | 29.10793 | 66.67336 | 39889 ft | 463 kts | 229° |
| 2026-04-21 11:49 | 29.06364 | 66.61981 | 39892 ft | 463 kts | 229° |
| 2026-04-21 11:50 | 29.01958 | 66.56662 | 39893 ft | 463 kts | 229° |
| 2026-04-21 11:50 | 28.97536 | 66.51317 | 39898 ft | 462 kts | 229° |
| 2026-04-21 11:51 | 28.93119 | 66.45979 | 39886 ft | 462 kts | 229° |
| 2026-04-21 11:51 | 28.88700 | 66.40647 | 39887 ft | 461 kts | 229° |
| 2026-04-21 11:52 | 28.84287 | 66.35328 | 39874 ft | 461 kts | 229° |
| 2026-04-21 11:52 | 28.79906 | 66.30056 | 39873 ft | 461 kts | 229° |
| 2026-04-21 11:53 | 28.75490 | 66.24748 | 39854 ft | 461 kts | 229° |
| 2026-04-21 11:53 | 28.71073 | 66.19445 | 39870 ft | 461 kts | 229° |
| 2026-04-21 11:54 | 28.66642 | 66.14134 | 39864 ft | 462 kts | 229° |
| 2026-04-21 11:54 | 28.62209 | 66.08827 | 39848 ft | 463 kts | 229° |
| 2026-04-21 11:55 | 28.57765 | 66.03514 | 39847 ft | 464 kts | 229° |
| 2026-04-21 11:55 | 28.53336 | 65.98227 | 39819 ft | 464 kts | 229° |
| 2026-04-21 11:56 | 28.48882 | 65.92915 | 39821 ft | 464 kts | 229° |
| 2026-04-21 11:56 | 28.44423 | 65.87604 | 39820 ft | 464 kts | 229° |
| 2026-04-21 11:57 | 28.39959 | 65.82296 | 39805 ft | 464 kts | 229° |
| 2026-04-21 11:57 | 28.35498 | 65.76996 | 39788 ft | 464 kts | 229° |
| 2026-04-21 11:58 | 28.31034 | 65.71700 | 39763 ft | 464 kts | 229° |
| 2026-04-21 11:58 | 28.26566 | 65.66407 | 39763 ft | 464 kts | 229° |
| 2026-04-21 11:59 | 28.22090 | 65.61110 | 39751 ft | 464 kts | 229° |
| 2026-04-21 11:59 | 28.17618 | 65.55825 | 39752 ft | 464 kts | 229° |
| 2026-04-21 12:00 | 28.13144 | 65.50544 | 39768 ft | 464 kts | 229° |
| 2026-04-21 12:00 | 28.08697 | 65.45301 | 39736 ft | 464 kts | 229° |
| 2026-04-21 12:01 | 28.04227 | 65.40039 | 39761 ft | 464 kts | 229° |
| 2026-04-21 12:01 | 27.99753 | 65.34778 | 39752 ft | 463 kts | 229° |
| 2026-04-21 12:02 | 27.93048 | 65.26900 | 39757 ft | 463 kts | 229° |
| 2026-04-21 12:03 | 27.88577 | 65.21656 | 39746 ft | 463 kts | 229° |
| 2026-04-21 12:03 | 27.84127 | 65.16441 | 39745 ft | 463 kts | 229° |
| 2026-04-21 12:04 | 27.79647 | 65.11198 | 39761 ft | 463 kts | 229° |
| 2026-04-21 12:04 | 27.75169 | 65.05965 | 39759 ft | 463 kts | 229° |
| 2026-04-21 12:05 | 27.70684 | 65.00730 | 39757 ft | 463 kts | 229° |
| 2026-04-21 12:05 | 27.66199 | 64.95502 | 39768 ft | 464 kts | 229° |
| 2026-04-21 12:06 | 27.61739 | 64.90309 | 39772 ft | 464 kts | 229° |
| 2026-04-21 12:06 | 27.57243 | 64.85081 | 39769 ft | 465 kts | 229° |
| 2026-04-21 12:07 | 27.52737 | 64.79848 | 39771 ft | 465 kts | 229° |
| 2026-04-21 12:07 | 27.48231 | 64.74621 | 39790 ft | 465 kts | 229° |
| 2026-04-21 12:08 | 27.43721 | 64.69396 | 39783 ft | 465 kts | 228° |
| 2026-04-21 12:08 | 27.39213 | 64.64181 | 39784 ft | 465 kts | 228° |
| 2026-04-21 12:09 | 27.34701 | 64.58966 | 39794 ft | 464 kts | 228° |
| 2026-04-21 12:09 | 27.30224 | 64.53800 | 39800 ft | 464 kts | 228° |
| 2026-04-21 12:10 | 27.25711 | 64.48597 | 39801 ft | 464 kts | 228° |
| 2026-04-21 12:10 | 27.21197 | 64.43399 | 39802 ft | 464 kts | 228° |
| 2026-04-21 12:11 | 27.16677 | 64.38202 | 39801 ft | 464 kts | 228° |
| 2026-04-21 12:11 | 27.12160 | 64.33014 | 39795 ft | 465 kts | 228° |
| 2026-04-21 12:12 | 27.07639 | 64.27827 | 39803 ft | 465 kts | 228° |
| 2026-04-21 12:12 | 27.03115 | 64.22643 | 39798 ft | 465 kts | 228° |
| 2026-04-21 12:13 | 26.98583 | 64.17455 | 39802 ft | 465 kts | 228° |
| 2026-04-21 12:13 | 26.94064 | 64.12295 | 39806 ft | 466 kts | 228° |
| 2026-04-21 12:14 | 26.89496 | 64.07130 | 39801 ft | 466 kts | 227° |
| 2026-04-21 12:14 | 26.84918 | 64.01972 | 39798 ft | 467 kts | 227° |
| 2026-04-21 12:15 | 26.80333 | 63.96806 | 39793 ft | 467 kts | 227° |
| 2026-04-21 12:15 | 26.75776 | 63.91674 | 39793 ft | 467 kts | 227° |
| 2026-04-21 12:16 | 26.71191 | 63.86516 | 39793 ft | 467 kts | 227° |
| 2026-04-21 12:16 | 26.66597 | 63.81353 | 39786 ft | 467 kts | 227° |
| 2026-04-21 12:17 | 26.62011 | 63.76206 | 39800 ft | 467 kts | 227° |
| 2026-04-21 12:17 | 26.57420 | 63.71059 | 39792 ft | 467 kts | 227° |
| 2026-04-21 12:18 | 26.52824 | 63.65913 | 39797 ft | 467 kts | 227° |
| 2026-04-21 12:18 | 26.48227 | 63.60773 | 39801 ft | 468 kts | 227° |
| 2026-04-21 12:19 | 26.43653 | 63.55663 | 39790 ft | 468 kts | 227° |
| 2026-04-21 12:19 | 26.39044 | 63.50522 | 39795 ft | 468 kts | 227° |
| 2026-04-21 12:20 | 26.34433 | 63.45384 | 39794 ft | 468 kts | 227° |
| 2026-04-21 12:20 | 26.29817 | 63.40246 | 39788 ft | 468 kts | 227° |
| 2026-04-21 12:21 | 26.25198 | 63.35111 | 39786 ft | 469 kts | 227° |
| 2026-04-21 12:21 | 26.20613 | 63.30020 | 39789 ft | 469 kts | 227° |
| 2026-04-21 12:22 | 26.15987 | 63.24890 | 39788 ft | 469 kts | 227° |
| 2026-04-21 12:22 | 26.11361 | 63.19764 | 39783 ft | 469 kts | 227° |
| 2026-04-21 12:23 | 26.06728 | 63.14637 | 39783 ft | 469 kts | 227° |
| 2026-04-21 12:23 | 26.02094 | 63.09514 | 39774 ft | 469 kts | 227° |
| 2026-04-21 12:24 | 25.97483 | 63.04421 | 39767 ft | 469 kts | 227° |
| 2026-04-21 12:24 | 25.92849 | 62.99293 | 39774 ft | 470 kts | 227° |
| 2026-04-21 12:25 | 25.88214 | 62.94165 | 39782 ft | 470 kts | 227° |
| 2026-04-21 12:25 | 25.83569 | 62.89033 | 39782 ft | 471 kts | 227° |
| 2026-04-21 12:26 | 25.78938 | 62.83924 | 39784 ft | 472 kts | 227° |
| 2026-04-21 12:26 | 25.74280 | 62.78790 | 39772 ft | 472 kts | 227° |
| 2026-04-21 12:27 | 25.69612 | 62.73653 | 39794 ft | 473 kts | 227° |
| 2026-04-21 12:27 | 25.64939 | 62.68515 | 39786 ft | 473 kts | 227° |
| 2026-04-21 12:28 | 25.60257 | 62.63373 | 39796 ft | 473 kts | 227° |
| 2026-04-21 12:28 | 25.55577 | 62.58240 | 39788 ft | 473 kts | 227° |
| 2026-04-21 12:29 | 25.50920 | 62.53138 | 39796 ft | 473 kts | 227° |
| 2026-04-21 12:29 | 25.46228 | 62.48004 | 39803 ft | 474 kts | 227° |
| 2026-04-21 12:30 | 25.42323 | 62.43735 | 39804 ft | 474 kts | 227° |
| 2026-04-21 12:30 | 25.37624 | 62.38603 | 39804 ft | 475 kts | 227° |
| 2026-04-21 12:31 | 25.32145 | 62.32628 | 39801 ft | 476 kts | 227° |
| 2026-04-21 12:31 | 25.28188 | 62.28318 | 39805 ft | 476 kts | 226° |
| 2026-04-21 12:32 | 25.23466 | 62.23179 | 39804 ft | 477 kts | 227° |
| 2026-04-21 12:32 | 25.18764 | 62.18069 | 39800 ft | 478 kts | 227° |
| 2026-04-21 12:33 | 25.14014 | 62.12911 | 39808 ft | 479 kts | 227° |
| 2026-04-21 12:33 | 25.09256 | 62.07751 | 39809 ft | 480 kts | 227° |
| 2026-04-21 12:34 | 25.04481 | 62.02579 | 39813 ft | 481 kts | 227° |
| 2026-04-21 12:34 | 24.99692 | 61.97397 | 39811 ft | 482 kts | 227° |
| 2026-04-21 12:35 | 24.94903 | 61.92222 | 39814 ft | 483 kts | 227° |
| 2026-04-21 12:35 | 24.90102 | 61.87039 | 39802 ft | 483 kts | 227° |
| 2026-04-21 12:36 | 24.85297 | 61.81858 | 39807 ft | 483 kts | 227° |
| 2026-04-21 12:36 | 24.80506 | 61.76698 | 39813 ft | 484 kts | 227° |
| 2026-04-21 12:37 | 24.75687 | 61.71514 | 39814 ft | 484 kts | 227° |
| 2026-04-21 12:37 | 24.70866 | 61.66334 | 39814 ft | 484 kts | 227° |
| 2026-04-21 12:38 | 24.66036 | 61.61149 | 39810 ft | 484 kts | 227° |
| 2026-04-21 12:38 | 24.61244 | 61.56012 | 39812 ft | 484 kts | 227° |
| 2026-04-21 12:39 | 24.56418 | 61.50843 | 39809 ft | 484 kts | 227° |
| 2026-04-21 12:39 | 24.51596 | 61.45684 | 39806 ft | 484 kts | 227° |
| 2026-04-21 12:40 | 24.46765 | 61.40520 | 39812 ft | 484 kts | 227° |
| 2026-04-21 12:40 | 24.42062 | 61.35245 | 39807 ft | 481 kts | 235° |
| 2026-04-21 12:41 | 24.38591 | 61.29038 | 39827 ft | 474 kts | 249° |
| 2026-04-21 12:41 | 24.36350 | 61.22326 | 39809 ft | 471 kts | 255° |
| 2026-04-21 12:42 | 24.34221 | 61.15517 | 39821 ft | 472 kts | 254° |
| 2026-04-21 12:42 | 24.32045 | 61.08709 | 39811 ft | 473 kts | 254° |
| 2026-04-21 12:43 | 24.29838 | 61.01909 | 39802 ft | 473 kts | 254° |
| 2026-04-21 12:43 | 24.27637 | 60.95149 | 39801 ft | 473 kts | 254° |
| 2026-04-21 12:44 | 24.25424 | 60.88357 | 39813 ft | 473 kts | 254° |
| 2026-04-21 12:44 | 24.23211 | 60.81571 | 39815 ft | 472 kts | 254° |
| 2026-04-21 12:45 | 24.20993 | 60.74781 | 39789 ft | 472 kts | 255° |
| 2026-04-21 12:45 | 24.18785 | 60.68060 | 39805 ft | 471 kts | 255° |
| 2026-04-21 12:46 | 24.16559 | 60.61304 | 39804 ft | 471 kts | 255° |
| 2026-04-21 12:46 | 24.14336 | 60.54564 | 39804 ft | 470 kts | 255° |
| 2026-04-21 12:47 | 24.12109 | 60.47818 | 39803 ft | 470 kts | 255° |
| 2026-04-21 12:47 | 24.09885 | 60.41095 | 39808 ft | 469 kts | 255° |
| 2026-04-21 12:48 | 24.07664 | 60.34390 | 39798 ft | 468 kts | 255° |
| 2026-04-21 12:48 | 24.05443 | 60.27697 | 39798 ft | 467 kts | 255° |
| 2026-04-21 12:49 | 24.03223 | 60.21017 | 39796 ft | 467 kts | 255° |
| 2026-04-21 12:49 | 24.01016 | 60.14387 | 39800 ft | 466 kts | 255° |
| 2026-04-21 12:50 | 23.98793 | 60.07722 | 39792 ft | 465 kts | 255° |
| 2026-04-21 12:50 | 23.96574 | 60.01077 | 39782 ft | 465 kts | 255° |
| 2026-04-21 12:51 | 23.94352 | 59.94434 | 39790 ft | 464 kts | 255° |
| 2026-04-21 12:51 | 23.92143 | 59.87843 | 39787 ft | 465 kts | 256° |
| 2026-04-21 12:52 | 23.89920 | 59.81217 | 39789 ft | 464 kts | 256° |
| 2026-04-21 12:52 | 23.87696 | 59.74603 | 39788 ft | 464 kts | 256° |
| 2026-04-21 12:53 | 23.85471 | 59.67994 | 39786 ft | 463 kts | 256° |
| 2026-04-21 12:53 | 23.83242 | 59.61384 | 39786 ft | 463 kts | 256° |
| 2026-04-21 12:54 | 23.81016 | 59.54790 | 39783 ft | 462 kts | 256° |
| 2026-04-21 12:54 | 23.78773 | 59.48211 | 39783 ft | 462 kts | 255° |
| 2026-04-21 12:55 | 23.76423 | 59.41673 | 39783 ft | 462 kts | 255° |
| 2026-04-21 12:55 | 23.74064 | 59.35193 | 39784 ft | 462 kts | 255° |
| 2026-04-21 12:56 | 23.71701 | 59.28670 | 39790 ft | 461 kts | 255° |
| 2026-04-21 12:56 | 23.69351 | 59.22169 | 39782 ft | 460 kts | 255° |
| 2026-04-21 12:57 | 23.67002 | 59.15672 | 39785 ft | 460 kts | 255° |
| 2026-04-21 12:57 | 23.64654 | 59.09189 | 39784 ft | 459 kts | 255° |
| 2026-04-21 12:58 | 23.62319 | 59.02752 | 39778 ft | 459 kts | 255° |
| 2026-04-21 12:58 | 23.59970 | 58.96286 | 39782 ft | 458 kts | 255° |
| 2026-04-21 12:59 | 23.57618 | 58.89823 | 39778 ft | 457 kts | 255° |
| 2026-04-21 12:59 | 23.55267 | 58.83372 | 39781 ft | 457 kts | 255° |
| 2026-04-21 13:00 | 23.52919 | 58.76937 | 39780 ft | 457 kts | 255° |
| 2026-04-21 13:00 | 23.50583 | 58.70546 | 39783 ft | 456 kts | 255° |
| 2026-04-21 13:01 | 23.48229 | 58.64114 | 39786 ft | 457 kts | 255° |
| 2026-04-21 13:01 | 23.45872 | 58.57682 | 39778 ft | 458 kts | 255° |
| 2026-04-21 13:02 | 23.43507 | 58.51239 | 39775 ft | 457 kts | 255° |
| 2026-04-21 13:02 | 23.39950 | 58.41589 | 39778 ft | 457 kts | 254° |
| 2026-04-21 13:03 | 23.37524 | 58.35227 | 39774 ft | 457 kts | 254° |
| 2026-04-21 13:03 | 23.35067 | 58.28834 | 39787 ft | 458 kts | 254° |
| 2026-04-21 13:04 | 23.32622 | 58.22437 | 39786 ft | 457 kts | 254° |
| 2026-04-21 13:04 | 23.30174 | 58.16042 | 39788 ft | 456 kts | 254° |
| 2026-04-21 13:05 | 23.27763 | 58.09748 | 39804 ft | 453 kts | 254° |
| 2026-04-21 13:05 | 23.25336 | 58.03418 | 39819 ft | 452 kts | 254° |
| 2026-04-21 13:06 | 23.22994 | 57.97075 | 39825 ft | 450 kts | 256° |
| 2026-04-21 13:06 | 23.20844 | 57.90735 | 39853 ft | 449 kts | 257° |
| 2026-04-21 13:07 | 23.18685 | 57.84362 | 39848 ft | 449 kts | 256° |
| 2026-04-21 13:07 | 23.16498 | 57.77995 | 39873 ft | 449 kts | 256° |
| 2026-04-21 13:08 | 23.14298 | 57.71638 | 39852 ft | 449 kts | 256° |
| 2026-04-21 13:08 | 23.12101 | 57.65296 | 39881 ft | 448 kts | 256° |
| 2026-04-21 13:09 | 23.09922 | 57.59015 | 39885 ft | 445 kts | 256° |
| 2026-04-21 13:09 | 23.07734 | 57.52715 | 39893 ft | 444 kts | 256° |
| 2026-04-21 13:10 | 23.05549 | 57.46435 | 39892 ft | 445 kts | 256° |
| 2026-04-21 13:10 | 23.03358 | 57.40138 | 39885 ft | 444 kts | 256° |
| 2026-04-21 13:11 | 23.01322 | 57.33886 | 39891 ft | 438 kts | 262° |
| 2026-04-21 13:11 | 23.00335 | 57.27441 | 39889 ft | 430 kts | 270° |
| 2026-04-21 13:12 | 23.00279 | 57.21016 | 39895 ft | 424 kts | 276° |
| 2026-04-21 13:12 | 23.00484 | 57.14597 | 39874 ft | 425 kts | 276° |
| 2026-04-21 13:13 | 23.00659 | 57.08190 | 39892 ft | 423 kts | 276° |
| 2026-04-21 13:13 | 23.00814 | 57.01781 | 39858 ft | 425 kts | 276° |
| 2026-04-21 13:14 | 23.00966 | 56.95356 | 39874 ft | 426 kts | 276° |
| 2026-04-21 13:14 | 23.01122 | 56.88957 | 39854 ft | 427 kts | 276° |
| 2026-04-21 13:15 | 23.01278 | 56.82504 | 39838 ft | 428 kts | 276° |
| 2026-04-21 13:15 | 23.01430 | 56.76035 | 39837 ft | 428 kts | 276° |
| 2026-04-21 13:16 | 23.01579 | 56.69578 | 39823 ft | 427 kts | 276° |
| 2026-04-21 13:16 | 23.01726 | 56.63123 | 39824 ft | 427 kts | 276° |
| 2026-04-21 13:17 | 23.01870 | 56.56686 | 39810 ft | 426 kts | 276° |
| 2026-04-21 13:17 | 23.02010 | 56.50301 | 39799 ft | 425 kts | 276° |
| 2026-04-21 13:18 | 23.02148 | 56.43884 | 39792 ft | 424 kts | 276° |
| 2026-04-21 13:18 | 23.02284 | 56.37483 | 39791 ft | 424 kts | 276° |
| 2026-04-21 13:19 | 23.02395 | 56.32166 | 39775 ft | 423 kts | 276° |
| 2026-04-21 13:19 | 23.02516 | 56.25781 | 39782 ft | 423 kts | 275° |
| 2026-04-21 13:20 | 23.02630 | 56.19386 | 39780 ft | 422 kts | 275° |
| 2026-04-21 13:20 | 23.02741 | 56.13044 | 39771 ft | 422 kts | 275° |
| 2026-04-21 13:21 | 23.02851 | 56.06677 | 39766 ft | 422 kts | 275° |
| 2026-04-21 13:21 | 23.02960 | 56.00309 | 39771 ft | 422 kts | 275° |
| 2026-04-21 13:22 | 23.03065 | 55.93935 | 39769 ft | 422 kts | 275° |
| 2026-04-21 13:22 | 23.03177 | 55.87565 | 39763 ft | 422 kts | 275° |
| 2026-04-21 13:23 | 23.03300 | 55.81189 | 39752 ft | 422 kts | 275° |
| 2026-04-21 13:23 | 23.03420 | 55.74809 | 39754 ft | 422 kts | 275° |
| 2026-04-21 13:24 | 23.03536 | 55.68438 | 39757 ft | 422 kts | 275° |
| 2026-04-21 13:24 | 23.03648 | 55.62061 | 39744 ft | 422 kts | 275° |
| 2026-04-21 13:25 | 23.03759 | 55.55721 | 39740 ft | 422 kts | 275° |
| 2026-04-21 13:25 | 23.03858 | 55.49339 | 39739 ft | 422 kts | 275° |
| 2026-04-21 13:26 | 23.03938 | 55.42968 | 39736 ft | 421 kts | 275° |
| 2026-04-21 13:26 | 23.04018 | 55.36643 | 39730 ft | 421 kts | 275° |
| 2026-04-21 13:27 | 23.03883 | 55.30266 | 39749 ft | 424 kts | 269° |
| 2026-04-21 13:27 | 23.02879 | 55.23917 | 39735 ft | 429 kts | 263° |
| 2026-04-21 13:28 | 23.01584 | 55.17593 | 39732 ft | 428 kts | 264° |
| 2026-04-21 13:28 | 23.00360 | 55.11317 | 39732 ft | 428 kts | 264° |
| 2026-04-21 13:29 | 22.99128 | 55.04998 | 39737 ft | 427 kts | 264° |
| 2026-04-21 13:29 | 22.97889 | 54.98690 | 39722 ft | 427 kts | 264° |
| 2026-04-21 13:30 | 22.96646 | 54.92388 | 39739 ft | 427 kts | 264° |
| 2026-04-21 13:30 | 22.95401 | 54.86099 | 39728 ft | 426 kts | 264° |
| 2026-04-21 13:31 | 22.94155 | 54.79811 | 39739 ft | 426 kts | 264° |
| 2026-04-21 13:31 | 22.92907 | 54.73531 | 39732 ft | 426 kts | 264° |
| 2026-04-21 13:32 | 22.91658 | 54.67254 | 39733 ft | 425 kts | 264° |
| 2026-04-21 13:32 | 22.90414 | 54.61018 | 39731 ft | 425 kts | 264° |
| 2026-04-21 13:33 | 22.89157 | 54.54735 | 39729 ft | 425 kts | 264° |
| 2026-04-21 13:33 | 22.87900 | 54.48460 | 39722 ft | 425 kts | 264° |
| 2026-04-21 13:34 | 22.86650 | 54.42233 | 39732 ft | 425 kts | 264° |
| 2026-04-21 13:34 | 22.85390 | 54.35969 | 39733 ft | 425 kts | 264° |
| 2026-04-21 13:35 | 22.84126 | 54.29703 | 39729 ft | 425 kts | 263° |
| 2026-04-21 13:35 | 22.82860 | 54.23439 | 39722 ft | 425 kts | 263° |
| 2026-04-21 13:36 | 22.81600 | 54.17216 | 39726 ft | 424 kts | 263° |
| 2026-04-21 13:36 | 22.80333 | 54.10968 | 39730 ft | 424 kts | 263° |
| 2026-04-21 13:37 | 22.79064 | 54.04724 | 39729 ft | 424 kts | 264° |
| 2026-04-21 13:37 | 22.78312 | 53.98448 | 39725 ft | 417 kts | 271° |
| 2026-04-21 13:38 | 22.78375 | 53.92206 | 39730 ft | 413 kts | 277° |
| 2026-04-21 13:38 | 22.78753 | 53.85989 | 39745 ft | 413 kts | 277° |
| 2026-04-21 13:39 | 22.79135 | 53.79765 | 39741 ft | 414 kts | 277° |
| 2026-04-21 13:39 | 22.79501 | 53.73572 | 39732 ft | 414 kts | 277° |
| 2026-04-21 13:40 | 22.79860 | 53.67326 | 39726 ft | 414 kts | 277° |
| 2026-04-21 13:40 | 22.80214 | 53.61085 | 39728 ft | 414 kts | 277° |
| 2026-04-21 13:41 | 22.80565 | 53.54853 | 39737 ft | 415 kts | 277° |
| 2026-04-21 13:41 | 22.80912 | 53.48652 | 39731 ft | 414 kts | 277° |
| 2026-04-21 13:42 | 22.81258 | 53.42411 | 39725 ft | 414 kts | 277° |
| 2026-04-21 13:42 | 22.81602 | 53.36175 | 39737 ft | 414 kts | 277° |
| 2026-04-21 13:43 | 22.81945 | 53.29925 | 39732 ft | 414 kts | 277° |
| 2026-04-21 13:43 | 22.82282 | 53.23719 | 39729 ft | 414 kts | 277° |
| 2026-04-21 13:44 | 22.82618 | 53.17485 | 39736 ft | 414 kts | 277° |
| 2026-04-21 13:44 | 22.82953 | 53.11247 | 39737 ft | 414 kts | 277° |
| 2026-04-21 13:45 | 22.83284 | 53.05012 | 39748 ft | 414 kts | 277° |
| 2026-04-21 13:45 | 22.83614 | 52.98772 | 39732 ft | 414 kts | 276° |
| 2026-04-21 13:46 | 22.83938 | 52.92575 | 39730 ft | 414 kts | 276° |
| 2026-04-21 13:46 | 22.84262 | 52.86352 | 39737 ft | 413 kts | 276° |
| 2026-04-21 13:47 | 22.84583 | 52.80138 | 39733 ft | 412 kts | 276° |
| 2026-04-21 13:47 | 22.84901 | 52.73929 | 39726 ft | 412 kts | 276° |
| 2026-04-21 13:48 | 22.85215 | 52.67759 | 39731 ft | 412 kts | 276° |
| 2026-04-21 13:48 | 22.85528 | 52.61559 | 39731 ft | 412 kts | 276° |
| 2026-04-21 13:49 | 22.85839 | 52.55356 | 39734 ft | 412 kts | 276° |
| 2026-04-21 13:49 | 22.86147 | 52.49158 | 39734 ft | 412 kts | 276° |
| 2026-04-21 13:50 | 22.86453 | 52.42952 | 39730 ft | 412 kts | 276° |
| 2026-04-21 13:50 | 22.86754 | 52.36784 | 39729 ft | 412 kts | 276° |
| 2026-04-21 13:51 | 22.87055 | 52.30577 | 39728 ft | 412 kts | 276° |
| 2026-04-21 13:51 | 22.87354 | 52.24369 | 39749 ft | 412 kts | 276° |
| 2026-04-21 13:52 | 22.87650 | 52.18160 | 39734 ft | 412 kts | 276° |
| 2026-04-21 13:52 | 22.87944 | 52.11947 | 39734 ft | 412 kts | 276° |
| 2026-04-21 13:53 | 22.88235 | 52.05748 | 39737 ft | 411 kts | 276° |
| 2026-04-21 13:53 | 22.88524 | 51.99547 | 39736 ft | 411 kts | 276° |
| 2026-04-21 13:54 | 22.88808 | 51.93395 | 39738 ft | 411 kts | 276° |
| 2026-04-21 13:54 | 22.89092 | 51.87197 | 39736 ft | 411 kts | 276° |
| 2026-04-21 13:55 | 22.89373 | 51.81000 | 39735 ft | 411 kts | 276° |
| 2026-04-21 13:55 | 22.89652 | 51.74808 | 39735 ft | 411 kts | 276° |
| 2026-04-21 13:56 | 22.89928 | 51.68614 | 39732 ft | 411 kts | 276° |
| 2026-04-21 13:56 | 22.90203 | 51.62411 | 39742 ft | 411 kts | 276° |
| 2026-04-21 13:57 | 22.90475 | 51.56210 | 39746 ft | 411 kts | 275° |
| 2026-04-21 13:57 | 22.90742 | 51.50049 | 39746 ft | 411 kts | 275° |
| 2026-04-21 13:58 | 22.91010 | 51.43843 | 39745 ft | 411 kts | 275° |
| 2026-04-21 13:58 | 22.91274 | 51.37642 | 39743 ft | 411 kts | 275° |
| 2026-04-21 13:59 | 22.91537 | 51.31435 | 39739 ft | 411 kts | 275° |
| 2026-04-21 13:59 | 22.91795 | 51.25272 | 39747 ft | 411 kts | 275° |
| 2026-04-21 14:00 | 22.92053 | 51.19063 | 39751 ft | 411 kts | 275° |
| 2026-04-21 14:00 | 22.92307 | 51.12870 | 39747 ft | 411 kts | 275° |
| 2026-04-21 14:01 | 22.92560 | 51.06669 | 39745 ft | 411 kts | 275° |
| 2026-04-21 14:01 | 22.92810 | 51.00464 | 39753 ft | 411 kts | 275° |
| 2026-04-21 14:02 | 22.93058 | 50.94272 | 39750 ft | 411 kts | 275° |
| 2026-04-21 14:03 | 22.93424 | 50.84993 | 39743 ft | 411 kts | 275° |
| 2026-04-21 14:03 | 22.93666 | 50.78786 | 39748 ft | 412 kts | 275° |
| 2026-04-21 14:04 | 22.93905 | 50.72574 | 39773 ft | 412 kts | 275° |
| 2026-04-21 14:04 | 22.94141 | 50.66407 | 39758 ft | 412 kts | 275° |
| 2026-04-21 14:05 | 22.94376 | 50.60189 | 39745 ft | 412 kts | 275° |
| 2026-04-21 14:05 | 22.94608 | 50.53978 | 39754 ft | 411 kts | 275° |
| 2026-04-21 14:06 | 22.94837 | 50.47808 | 39750 ft | 411 kts | 275° |
| 2026-04-21 14:06 | 22.95064 | 50.41607 | 39749 ft | 411 kts | 275° |
| 2026-04-21 14:07 | 22.95289 | 50.35407 | 39756 ft | 411 kts | 275° |
| 2026-04-21 14:07 | 22.95511 | 50.29213 | 39753 ft | 411 kts | 275° |
| 2026-04-21 14:08 | 22.95731 | 50.23013 | 39751 ft | 411 kts | 274° |
| 2026-04-21 14:08 | 22.95948 | 50.16820 | 39742 ft | 411 kts | 274° |
| 2026-04-21 14:09 | 22.96127 | 50.11660 | 39754 ft | 411 kts | 274° |
| 2026-04-21 14:09 | 22.96339 | 50.05489 | 39754 ft | 411 kts | 274° |
| 2026-04-21 14:10 | 22.96551 | 49.99273 | 39752 ft | 411 kts | 274° |
| 2026-04-21 14:10 | 22.96759 | 49.93072 | 39755 ft | 411 kts | 274° |
| 2026-04-21 14:11 | 22.96964 | 49.86872 | 39748 ft | 411 kts | 274° |
| 2026-04-21 14:11 | 22.97166 | 49.80718 | 39749 ft | 410 kts | 274° |
| 2026-04-21 14:12 | 22.97366 | 49.74531 | 39748 ft | 410 kts | 274° |
| 2026-04-21 14:12 | 22.97565 | 49.68348 | 39748 ft | 409 kts | 274° |
| 2026-04-21 14:13 | 22.97760 | 49.62170 | 39748 ft | 409 kts | 274° |
| 2026-04-21 14:13 | 22.97952 | 49.56036 | 39745 ft | 409 kts | 274° |
| 2026-04-21 14:14 | 22.98142 | 49.49869 | 39749 ft | 409 kts | 274° |
| 2026-04-21 14:14 | 22.98330 | 49.43698 | 39749 ft | 409 kts | 274° |
| 2026-04-21 14:15 | 22.98517 | 49.37518 | 39742 ft | 409 kts | 274° |
| 2026-04-21 14:15 | 22.98700 | 49.31335 | 39739 ft | 410 kts | 274° |
| 2026-04-21 14:16 | 22.98882 | 49.25147 | 39738 ft | 410 kts | 274° |
| 2026-04-21 14:16 | 22.99183 | 49.22101 | 39731 ft | 405 kts | 285° |
| 2026-04-21 14:16 | 23.00157 | 49.19236 | 39766 ft | 406 kts | 293° |
| 2026-04-21 14:17 | 23.02937 | 49.13917 | 39744 ft | 410 kts | 303° |
| 2026-04-21 14:17 | 23.06784 | 49.09346 | 39740 ft | 404 kts | 299° |
| 2026-04-21 14:17 | 23.07948 | 49.06602 | 39736 ft | 401 kts | 284° |
| 2026-04-21 14:18 | 23.08440 | 49.03619 | 39748 ft | 403 kts | 277° |
| 2026-04-21 14:18 | 23.09982 | 48.97891 | 39755 ft | 407 kts | 305° |
| 2026-04-21 14:18 | 23.12136 | 48.95834 | 39748 ft | 425 kts | 324° |
| 2026-04-21 14:19 | 23.14937 | 48.94569 | 39781 ft | 432 kts | 330° |
| 2026-04-21 14:19 | 23.20374 | 48.91893 | 39759 ft | 431 kts | 324° |
| 2026-04-21 14:20 | 23.25292 | 48.88281 | 39748 ft | 422 kts | 311° |
| 2026-04-21 14:20 | 23.29072 | 48.83467 | 39755 ft | 417 kts | 301° |
| 2026-04-21 14:21 | 23.32243 | 48.78205 | 39748 ft | 415 kts | 298° |
| 2026-04-21 14:21 | 23.35301 | 48.72881 | 39768 ft | 413 kts | 298° |
| 2026-04-21 14:22 | 23.38363 | 48.67606 | 39759 ft | 410 kts | 298° |
| 2026-04-21 14:22 | 23.41403 | 48.62412 | 39759 ft | 407 kts | 298° |
| 2026-04-21 14:23 | 23.44448 | 48.57218 | 39768 ft | 405 kts | 298° |
| 2026-04-21 14:23 | 23.47471 | 48.52053 | 39776 ft | 404 kts | 298° |
| 2026-04-21 14:24 | 23.50487 | 48.46894 | 39775 ft | 403 kts | 298° |
| 2026-04-21 14:24 | 23.53500 | 48.41739 | 39766 ft | 403 kts | 298° |
| 2026-04-21 14:25 | 23.56517 | 48.36582 | 39772 ft | 404 kts | 298° |
| 2026-04-21 14:25 | 23.59521 | 48.31443 | 39781 ft | 405 kts | 298° |
| 2026-04-21 14:26 | 23.62551 | 48.26251 | 39773 ft | 406 kts | 298° |
| 2026-04-21 14:26 | 23.65590 | 48.21041 | 39789 ft | 407 kts | 298° |
| 2026-04-21 14:27 | 23.68630 | 48.15822 | 39780 ft | 408 kts | 298° |
| 2026-04-21 14:27 | 23.71929 | 48.10768 | 39788 ft | 412 kts | 306° |
| 2026-04-21 14:28 | 23.75912 | 48.06262 | 39789 ft | 417 kts | 310° |
| 2026-04-21 14:28 | 23.80450 | 48.02253 | 39818 ft | 420 kts | 315° |
| 2026-04-21 14:29 | 23.85092 | 47.98363 | 39797 ft | 420 kts | 315° |
| 2026-04-21 14:29 | 23.89719 | 47.94470 | 39791 ft | 419 kts | 314° |
| 2026-04-21 14:30 | 23.94290 | 47.90596 | 39795 ft | 418 kts | 314° |
| 2026-04-21 14:30 | 23.98873 | 47.86695 | 39804 ft | 417 kts | 314° |
| 2026-04-21 14:31 | 24.03456 | 47.82788 | 39805 ft | 417 kts | 314° |
| 2026-04-21 14:31 | 24.08031 | 47.78884 | 39807 ft | 417 kts | 314° |
| 2026-04-21 14:32 | 24.12605 | 47.74979 | 39812 ft | 416 kts | 314° |
| 2026-04-21 14:32 | 24.17143 | 47.71100 | 39816 ft | 416 kts | 314° |
| 2026-04-21 14:33 | 24.21704 | 47.67197 | 39820 ft | 416 kts | 314° |
| 2026-04-21 14:33 | 24.26268 | 47.63289 | 39810 ft | 417 kts | 314° |
| 2026-04-21 14:34 | 24.30822 | 47.59389 | 39709 ft | 411 kts | 314° |
| 2026-04-21 14:34 | 24.33076 | 47.57458 | 39164 ft | 411 kts | 314° |
| 2026-04-21 14:34 | 24.35327 | 47.55528 | 38541 ft | 409 kts | 313° |
| 2026-04-21 14:34 | 24.37566 | 47.53605 | 37640 ft | 409 kts | 313° |
| 2026-04-21 14:35 | 24.39776 | 47.51705 | 36781 ft | 409 kts | 314° |
| 2026-04-21 14:35 | 24.42023 | 47.49770 | 35886 ft | 410 kts | 314° |
| 2026-04-21 14:35 | 24.44277 | 47.47828 | 34917 ft | 415 kts | 315° |
| 2026-04-21 14:35 | 24.46554 | 47.45867 | 33872 ft | 409 kts | 315° |
| 2026-04-21 14:36 | 24.48815 | 47.43922 | 32782 ft | 417 kts | 316° |
| 2026-04-21 14:36 | 24.51144 | 47.41910 | 31682 ft | 438 kts | 316° |
| 2026-04-21 14:36 | 24.53597 | 47.39786 | 30844 ft | 455 kts | 317° |
| 2026-04-21 14:36 | 24.56106 | 47.37621 | 29967 ft | 458 kts | 317° |
| 2026-04-21 14:37 | 24.58607 | 47.35472 | 29021 ft | 454 kts | 317° |
| 2026-04-21 14:37 | 24.61053 | 47.33373 | 28121 ft | 448 kts | 317° |
| 2026-04-21 14:37 | 24.63496 | 47.31274 | 27302 ft | 442 kts | 317° |
| 2026-04-21 14:37 | 24.65905 | 47.29199 | 26510 ft | 437 kts | 317° |
| 2026-04-21 14:38 | 24.68285 | 47.27145 | 25720 ft | 432 kts | 317° |
| 2026-04-21 14:38 | 24.70640 | 47.25110 | 24938 ft | 429 kts | 317° |
| 2026-04-21 14:38 | 24.72985 | 47.23080 | 24177 ft | 427 kts | 317° |
| 2026-04-21 14:38 | 24.75284 | 47.21090 | 23405 ft | 425 kts | 317° |
| 2026-04-21 14:39 | 24.77608 | 47.19077 | 22512 ft | 423 kts | 317° |
| 2026-04-21 14:39 | 24.79911 | 47.17082 | 21723 ft | 419 kts | 317° |
| 2026-04-21 14:39 | 24.82197 | 47.15103 | 20972 ft | 415 kts | 317° |
| 2026-04-21 14:39 | 24.84459 | 47.13143 | 20237 ft | 411 kts | 317° |
| 2026-04-21 14:40 | 24.86700 | 47.11200 | 19536 ft | 408 kts | 317° |
| 2026-04-21 14:40 | 24.88924 | 47.09269 | 18831 ft | 405 kts | 316° |
| 2026-04-21 14:40 | 24.91133 | 47.07351 | 18117 ft | 402 kts | 316° |
| 2026-04-21 14:40 | 24.93293 | 47.05474 | 17365 ft | 399 kts | 316° |
| 2026-04-21 14:41 | 24.95462 | 47.03589 | 16657 ft | 395 kts | 316° |
| 2026-04-21 14:41 | 24.97618 | 47.01715 | 15981 ft | 392 kts | 316° |
| 2026-04-21 14:41 | 24.99749 | 46.99861 | 15327 ft | 389 kts | 316° |
| 2026-04-21 14:41 | 25.01872 | 46.98013 | 14692 ft | 386 kts | 316° |
| 2026-04-21 14:42 | 25.03972 | 46.96183 | 14044 ft | 384 kts | 316° |
| 2026-04-21 14:42 | 25.06069 | 46.94356 | 13355 ft | 383 kts | 316° |
| 2026-04-21 14:42 | 25.08089 | 46.92601 | 12636 ft | 359 kts | 316° |
| 2026-04-21 14:42 | 25.09952 | 46.90992 | 12297 ft | 321 kts | 316° |
| 2026-04-21 14:43 | 25.11628 | 46.89541 | 11898 ft | 294 kts | 315° |
| 2026-04-21 14:43 | 25.13189 | 46.88178 | 11250 ft | 280 kts | 315° |
| 2026-04-21 14:43 | 25.14701 | 46.86849 | 10450 ft | 276 kts | 315° |
| 2026-04-21 14:43 | 25.16195 | 46.85535 | 9615 ft | 274 kts | 315° |
| 2026-04-21 14:44 | 25.17692 | 46.84219 | 8812 ft | 277 kts | 316° |
| 2026-04-21 14:44 | 25.19214 | 46.82882 | 8405 ft | 281 kts | 317° |
| 2026-04-21 14:44 | 25.20741 | 46.81547 | 8133 ft | 279 kts | 317° |
| 2026-04-21 14:44 | 25.22254 | 46.80227 | 7937 ft | 275 kts | 317° |
| 2026-04-21 14:45 | 25.23755 | 46.78917 | 7729 ft | 274 kts | 317° |
| 2026-04-21 14:45 | 25.25172 | 46.77581 | 7656 ft | 258 kts | 304° |
| 2026-04-21 14:45 | 25.25912 | 46.75851 | 7665 ft | 254 kts | 277° |
| 2026-04-21 14:45 | 25.26040 | 46.73896 | 7680 ft | 255 kts | 266° |
| 2026-04-21 14:46 | 25.26073 | 46.71941 | 7678 ft | 255 kts | 270° |
| 2026-04-21 14:46 | 25.26226 | 46.69984 | 7687 ft | 257 kts | 271° |
| 2026-04-21 14:46 | 25.26346 | 46.68016 | 7698 ft | 257 kts | 268° |
| 2026-04-21 14:46 | 25.26356 | 46.66044 | 7689 ft | 257 kts | 265° |
| 2026-04-21 14:47 | 25.26253 | 46.64083 | 7689 ft | 253 kts | 262° |
| 2026-04-21 14:47 | 25.26047 | 46.62197 | 7605 ft | 244 kts | 258° |
| 2026-04-21 14:47 | 25.25739 | 46.60352 | 7292 ft | 243 kts | 256° |
| 2026-04-21 14:47 | 25.25350 | 46.58535 | 7000 ft | 242 kts | 253° |
| 2026-04-21 14:48 | 25.24884 | 46.56758 | 6721 ft | 240 kts | 250° |
| 2026-04-21 14:48 | 25.24308 | 46.55041 | 6427 ft | 234 kts | 240° |
| 2026-04-21 14:48 | 25.23245 | 46.53728 | 6138 ft | 230 kts | 212° |
| 2026-04-21 14:48 | 25.21770 | 46.53094 | 5857 ft | 227 kts | 192° |
| 2026-04-21 14:49 | 25.20261 | 46.52781 | 5572 ft | 219 kts | 187° |
| 2026-04-21 14:49 | 25.18812 | 46.53113 | 5321 ft | 215 kts | 150° |
| 2026-04-21 14:49 | 25.17643 | 46.54064 | 5193 ft | 202 kts | 148° |
| 2026-04-21 14:49 | 25.16495 | 46.54895 | 5115 ft | 193 kts | 151° |
| 2026-04-21 14:50 | 25.15737 | 46.55435 | 5069 ft | 191 kts | 151° |
| 2026-04-21 14:50 | 25.14277 | 46.56455 | 4838 ft | 183 kts | 148° |
| 2026-04-21 14:50 | 25.13211 | 46.57174 | 4635 ft | 177 kts | 149° |
| 2026-04-21 14:50 | 25.12179 | 46.57859 | 4453 ft | 170 kts | 149° |
| 2026-04-21 14:51 | 25.11166 | 46.58526 | 4310 ft | 165 kts | 148° |
| 2026-04-21 14:51 | 25.10214 | 46.59153 | 4155 ft | 153 kts | 148° |
| 2026-04-21 14:51 | 25.09341 | 46.59736 | 3956 ft | 140 kts | 147° |
| 2026-04-21 14:51 | 25.08535 | 46.60291 | 3800 ft | 134 kts | 144° |
| 2026-04-21 14:52 | 25.07730 | 46.60853 | 3694 ft | 140 kts | 144° |
| 2026-04-21 14:52 | 25.06899 | 46.61428 | 3606 ft | 142 kts | 144° |
| 2026-04-21 14:52 | 25.06077 | 46.61981 | 3522 ft | 135 kts | 144° |
| 2026-04-21 14:52 | 25.05271 | 46.62515 | 3410 ft | 136 kts | 145° |
| 2026-04-21 14:53 | 25.04460 | 46.63050 | 3328 ft | 135 kts | 144° |
| 2026-04-21 14:53 | 25.03651 | 46.63582 | 3232 ft | 136 kts | 144° |
| 2026-04-21 14:53 | 25.02835 | 46.64121 | 3135 ft | 136 kts | 145° |
| 2026-04-21 14:53 | 25.02022 | 46.64649 | 2979 ft | 136 kts | 145° |
| 2026-04-21 14:54 | 25.01200 | 46.65171 | 2804 ft | 136 kts | 145° |
| 2026-04-21 14:54 | 25.00370 | 46.65688 | 2673 ft | 138 kts | 145° |
| 2026-04-21 14:54 | 24.99520 | 46.66214 | 2531 ft | 142 kts | 146° |
| 2026-04-21 14:54 | 24.98634 | 46.66716 | 2401 ft | 145 kts | 153° |
| 2026-04-21 14:55 | 24.97678 | 46.67121 | 2197 ft | 147 kts | 149° |
| 2026-04-21 14:55 | 24.96804 | 46.67665 | 2063 ft | 143 kts | 148° |
| 2026-04-21 14:55 | 24.96020 | 46.68171 | 2041 ft | 115 kts | 150° |
| 2026-04-21 14:55 | 24.95458 | 46.68524 | 2042 ft | 71 kts | 150° |
| 2026-04-21 14:56 | 24.95160 | 46.68712 | 2043 ft | 42 kts | 149° |
| 2026-04-21 14:56 | 24.95010 | 46.68862 | 2039 ft | 27 kts | 127° |
| 2026-04-21 14:56 | 24.94959 | 46.69003 | 2041 ft | 15 kts | 90° |
| 2026-04-21 14:56 | 24.94985 | 46.69103 | 2041 ft | 6 kts | 61° |
| 2026-04-21 14:57 | 24.94992 | 46.69116 | 2044 ft | 2 kts | 60° |
| 2026-04-21 14:57 | 24.94997 | 46.69126 | 2044 ft | 2 kts | 60° |
| 2026-04-21 14:57 | 24.95000 | 46.69133 | 2042 ft | 2 kts | 68° |
| 2026-04-21 14:57 | 24.94955 | 46.69184 | 2042 ft | 10 kts | 149° |
| 2026-04-21 14:58 | 24.94897 | 46.69222 | 2040 ft | 10 kts | 149° |
| 2026-04-21 14:58 | 24.94837 | 46.69260 | 2038 ft | 10 kts | 151° |
| 2026-04-21 14:58 | 24.94777 | 46.69296 | 2042 ft | 10 kts | 149° |
| 2026-04-21 14:58 | 24.94718 | 46.69335 | 2042 ft | 10 kts | 150° |
| 2026-04-21 14:59 | 24.94678 | 46.69360 | 2042 ft | 10 kts | 150° |
| 2026-04-21 14:59 | 24.94618 | 46.69398 | 2044 ft | 10 kts | 149° |
| 2026-04-21 14:59 | 24.94559 | 46.69434 | 2045 ft | 10 kts | 151° |
| 2026-04-21 14:59 | 24.94507 | 46.69481 | 2040 ft | 10 kts | 115° |
| 2026-04-21 15:00 | 24.94538 | 46.69570 | 2035 ft | 21 kts | 60° |
| 2026-04-21 15:00 | 24.94629 | 46.69742 | 2043 ft | 27 kts | 59° |
| 2026-04-21 15:00 | 24.94725 | 46.69922 | 2042 ft | 27 kts | 59° |
| 2026-04-21 15:00 | 24.94819 | 46.70104 | 2042 ft | 27 kts | 60° |
| 2026-04-21 15:01 | 24.94914 | 46.70285 | 2044 ft | 27 kts | 59° |
| 2026-04-21 15:01 | 24.95007 | 46.70461 | 2045 ft | 23 kts | 60° |
| 2026-04-21 15:01 | 24.95062 | 46.70567 | 2045 ft | 14 kts | 60° |
| 2026-04-21 15:01 | 24.95108 | 46.70653 | 2042 ft | 10 kts | 59° |
| 2026-04-21 15:02 | 24.95162 | 46.70755 | 2043 ft | 14 kts | 61° |
| 2026-04-21 15:02 | 24.95193 | 46.70817 | 2045 ft | 14 kts | 61° |
| 2026-04-21 15:02 | 24.95239 | 46.70906 | 2045 ft | 14 kts | 59° |
| 2026-04-21 15:02 | 24.95285 | 46.70990 | 2042 ft | 11 kts | 59° |
| 2026-04-21 15:03 | 24.95352 | 46.71014 | 2045 ft | 11 kts | 341° |
| 2026-04-21 15:03 | 24.95422 | 46.70973 | 2044 ft | 11 kts | 330° |
| 2026-04-21 15:03 | 24.95491 | 46.70930 | 2040 ft | 11 kts | 330° |
| 2026-04-21 15:03 | 24.95559 | 46.70886 | 2045 ft | 11 kts | 329° |
| 2026-04-21 15:04 | 24.95628 | 46.70843 | 2043 ft | 11 kts | 331° |
| 2026-04-21 15:04 | 24.95698 | 46.70798 | 2043 ft | 13 kts | 329° |
| 2026-04-21 15:04 | 24.95816 | 46.70724 | 2043 ft | 19 kts | 330° |
| 2026-04-21 15:04 | 24.95888 | 46.70679 | 2044 ft | 10 kts | 330° |
| 2026-04-21 15:05 | 24.95950 | 46.70640 | 2044 ft | 9 kts | 330° |
| 2026-04-21 15:05 | 24.96029 | 46.70590 | 2042 ft | 9 kts | 330° |
| 2026-04-21 15:05 | 24.96077 | 46.70548 | 2042 ft | 8 kts | 300° |
| 2026-04-21 15:06 | 24.96065 | 46.70490 | 2042 ft | 8 kts | 242° |
| 2026-04-21 15:06 | 24.96073 | 46.70431 | 2037 ft | 8 kts | 298° |
| 2026-04-21 15:06 | 24.96093 | 46.70390 | 2042 ft | 4 kts | 298° |
| 2026-04-21 15:06 | 24.96099 | 46.70379 | 2044 ft | 1 kts | 299° |
| 2026-04-21 15:07 | 24.96102 | 46.70374 | 2044 ft | 1 kts | 298° |
| 2026-04-21 15:07 | 24.96102 | 46.70373 | 2044 ft | 0 kts | 298° |
| 2026-04-21 15:10 | 24.96104 | 46.70369 | 2042 ft | 0 kts | 298° |
| 2026-04-21 15:10 | 24.96104 | 46.70370 | 2042 ft | 0 kts | 298° |